sensor_id;sensor_type;location;lat;lon;timestamp;P1;durP1;ratioP1;P2;durP2;ratioP2
142;SDS011;63667;49.046;8.468;2023-02-15T00:00:08;166.77;;;33.60;;
142;SDS011;63667;49.046;8.468;2023-02-15T00:02:37;139.70;;;30.80;;
142;SDS011;63667;49.046;8.468;2023-02-15T00:05:05;129.03;;;33.10;;
142;SDS011;63667;49.046;8.468;2023-02-15T00:07:34;97.83;;;31.20;;
142;SDS011;63667;49.046;8.468;2023-02-15T00:10:02;116.63;;;32.30;;
142;SDS011;63667;49.046;8.468;2023-02-15T00:12:30;111.90;;;31.10;;
142;SDS011;63667;49.046;8.468;2023-02-15T00:14:58;114.10;;;30.50;;
142;SDS011;63667;49.046;8.468;2023-02-15T00:17:28;121.17;;;30.17;;
142;SDS011;63667;49.046;8.468;2023-02-15T00:19:56;125.77;;;33.40;;
142;SDS011;63667;49.046;8.468;2023-02-15T00:22:24;123.27;;;32.20;;
142;SDS011;63667;49.046;8.468;2023-02-15T00:24:53;121.27;;;30.13;;
142;SDS011;63667;49.046;8.468;2023-02-15T00:27:20;130.13;;;30.80;;
142;SDS011;63667;49.046;8.468;2023-02-15T00:29:48;119.00;;;33.53;;
142;SDS011;63667;49.046;8.468;2023-02-15T00:32:15;94.27;;;29.43;;
142;SDS011;63667;49.046;8.468;2023-02-15T00:34:43;110.83;;;30.80;;
142;SDS011;63667;49.046;8.468;2023-02-15T00:37:10;103.90;;;29.03;;
142;SDS011;63667;49.046;8.468;2023-02-15T00:39:38;181.10;;;33.30;;
142;SDS011;63667;49.046;8.468;2023-02-15T00:42:06;179.83;;;32.80;;
142;SDS011;63667;49.046;8.468;2023-02-15T00:44:33;136.83;;;30.30;;
142;SDS011;63667;49.046;8.468;2023-02-15T00:47:01;152.07;;;30.70;;
142;SDS011;63667;49.046;8.468;2023-02-15T00:49:28;115.33;;;30.90;;
142;SDS011;63667;49.046;8.468;2023-02-15T00:51:55;156.90;;;32.20;;
142;SDS011;63667;49.046;8.468;2023-02-15T00:54:23;135.50;;;32.27;;
142;SDS011;63667;49.046;8.468;2023-02-15T00:56:51;140.90;;;33.57;;
142;SDS011;63667;49.046;8.468;2023-02-15T00:59:18;207.57;;;33.23;;
142;SDS011;63667;49.046;8.468;2023-02-15T01:01:45;170.63;;;32.80;;
142;SDS011;63667;49.046;8.468;2023-02-15T01:04:13;116.73;;;30.00;;
142;SDS011;63667;49.046;8.468;2023-02-15T01:06:40;131.83;;;30.50;;
142;SDS011;63667;49.046;8.468;2023-02-15T01:09:08;122.93;;;30.67;;
142;SDS011;63667;49.046;8.468;2023-02-15T01:11:35;167.03;;;34.73;;
142;SDS011;63667;49.046;8.468;2023-02-15T01:14:04;156.50;;;31.70;;
142;SDS011;63667;49.046;8.468;2023-02-15T01:16:31;172.17;;;32.73;;
142;SDS011;63667;49.046;8.468;2023-02-15T01:18:59;173.87;;;32.23;;
142;SDS011;63667;49.046;8.468;2023-02-15T01:21:28;176.40;;;33.70;;
142;SDS011;63667;49.046;8.468;2023-02-15T01:23:56;174.23;;;34.07;;
142;SDS011;63667;49.046;8.468;2023-02-15T01:26:25;137.03;;;35.27;;
142;SDS011;63667;49.046;8.468;2023-02-15T01:28:53;142.27;;;35.37;;
142;SDS011;63667;49.046;8.468;2023-02-15T01:31:21;178.00;;;35.57;;
142;SDS011;63667;49.046;8.468;2023-02-15T01:33:49;140.70;;;33.63;;
142;SDS011;63667;49.046;8.468;2023-02-15T01:36:16;135.80;;;32.73;;
142;SDS011;63667;49.046;8.468;2023-02-15T01:38:43;149.97;;;33.90;;
142;SDS011;63667;49.046;8.468;2023-02-15T01:41:11;177.33;;;35.17;;
142;SDS011;63667;49.046;8.468;2023-02-15T01:43:53;205.20;;;31.63;;
142;SDS011;63667;49.046;8.468;2023-02-15T01:46:23;139.70;;;31.50;;
142;SDS011;63667;49.046;8.468;2023-02-15T01:48:55;138.67;;;32.60;;
142;SDS011;63667;49.046;8.468;2023-02-15T01:51:27;124.07;;;31.70;;
142;SDS011;63667;49.046;8.468;2023-02-15T01:54:07;115.33;;;32.10;;
142;SDS011;63667;49.046;8.468;2023-02-15T01:56:41;164.80;;;33.63;;
142;SDS011;63667;49.046;8.468;2023-02-15T01:59:14;104.40;;;28.83;;
142;SDS011;63667;49.046;8.468;2023-02-15T02:01:46;134.20;;;32.50;;
142;SDS011;63667;49.046;8.468;2023-02-15T02:04:23;88.63;;;29.17;;
142;SDS011;63667;49.046;8.468;2023-02-15T02:07:22;99.27;;;28.50;;
142;SDS011;63667;49.046;8.468;2023-02-15T02:09:52;70.53;;;23.90;;
142;SDS011;63667;49.046;8.468;2023-02-15T02:12:20;95.23;;;27.53;;
142;SDS011;63667;49.046;8.468;2023-02-15T02:14:49;133.40;;;29.87;;
142;SDS011;63667;49.046;8.468;2023-02-15T02:31:26;92.67;;;27.87;;
142;SDS011;63667;49.046;8.468;2023-02-15T02:42:39;110.87;;;29.27;;
142;SDS011;63667;49.046;8.468;2023-02-15T02:45:14;105.83;;;27.90;;
142;SDS011;63667;49.046;8.468;2023-02-15T02:47:55;79.57;;;27.40;;
142;SDS011;63667;49.046;8.468;2023-02-15T02:50:27;97.17;;;29.23;;
142;SDS011;63667;49.046;8.468;2023-02-15T02:52:56;112.73;;;29.10;;
142;SDS011;63667;49.046;8.468;2023-02-15T02:55:47;89.23;;;27.03;;
142;SDS011;63667;49.046;8.468;2023-02-15T02:58:26;98.47;;;27.57;;
142;SDS011;63667;49.046;8.468;2023-02-15T03:03:53;98.40;;;28.87;;
142;SDS011;63667;49.046;8.468;2023-02-15T03:11:50;112.47;;;30.37;;
142;SDS011;63667;49.046;8.468;2023-02-15T03:14:19;119.10;;;31.37;;
142;SDS011;63667;49.046;8.468;2023-02-15T03:16:47;110.67;;;30.10;;
142;SDS011;63667;49.046;8.468;2023-02-15T03:19:19;100.73;;;27.90;;
142;SDS011;63667;49.046;8.468;2023-02-15T03:21:58;92.50;;;26.70;;
142;SDS011;63667;49.046;8.468;2023-02-15T03:24:36;79.97;;;26.57;;
142;SDS011;63667;49.046;8.468;2023-02-15T03:27:10;83.23;;;27.97;;
142;SDS011;63667;49.046;8.468;2023-02-15T03:29:43;86.57;;;26.60;;
142;SDS011;63667;49.046;8.468;2023-02-15T03:32:14;85.10;;;27.83;;
142;SDS011;63667;49.046;8.468;2023-02-15T03:34:43;119.33;;;28.83;;
142;SDS011;63667;49.046;8.468;2023-02-15T03:38:12;126.40;;;27.70;;
142;SDS011;63667;49.046;8.468;2023-02-15T03:40:26;79.57;;;26.83;;
142;SDS011;63667;49.046;8.468;2023-02-15T03:43:30;116.57;;;26.67;;
142;SDS011;63667;49.046;8.468;2023-02-15T03:46:03;88.47;;;26.13;;
142;SDS011;63667;49.046;8.468;2023-02-15T03:49:00;81.43;;;25.63;;
142;SDS011;63667;49.046;8.468;2023-02-15T03:51:35;100.30;;;27.30;;
142;SDS011;63667;49.046;8.468;2023-02-15T03:54:07;106.70;;;29.07;;
142;SDS011;63667;49.046;8.468;2023-02-15T03:56:39;106.77;;;29.30;;
142;SDS011;63667;49.046;8.468;2023-02-15T03:59:27;100.13;;;30.10;;
142;SDS011;63667;49.046;8.468;2023-02-15T04:02:21;118.20;;;30.47;;
142;SDS011;63667;49.046;8.468;2023-02-15T04:05:19;81.30;;;27.37;;
142;SDS011;63667;49.046;8.468;2023-02-15T04:07:51;72.47;;;25.97;;
142;SDS011;63667;49.046;8.468;2023-02-15T04:10:18;87.57;;;26.40;;
142;SDS011;63667;49.046;8.468;2023-02-15T04:13:03;115.53;;;28.03;;
142;SDS011;63667;49.046;8.468;2023-02-15T04:15:30;80.27;;;26.40;;
142;SDS011;63667;49.046;8.468;2023-02-15T04:18:17;105.97;;;25.83;;
142;SDS011;63667;49.046;8.468;2023-02-15T04:20:45;83.17;;;26.10;;
142;SDS011;63667;49.046;8.468;2023-02-15T04:23:31;90.03;;;26.77;;
142;SDS011;63667;49.046;8.468;2023-02-15T04:26:17;96.37;;;25.90;;
142;SDS011;63667;49.046;8.468;2023-02-15T04:28:44;78.23;;;26.80;;
142;SDS011;63667;49.046;8.468;2023-02-15T04:31:13;83.97;;;26.13;;
142;SDS011;63667;49.046;8.468;2023-02-15T04:33:42;101.97;;;29.53;;
142;SDS011;63667;49.046;8.468;2023-02-15T04:36:11;71.10;;;26.90;;
142;SDS011;63667;49.046;8.468;2023-02-15T04:38:45;93.10;;;26.13;;
142;SDS011;63667;49.046;8.468;2023-02-15T04:41:13;73.40;;;24.93;;
142;SDS011;63667;49.046;8.468;2023-02-15T04:43:41;90.73;;;26.40;;
142;SDS011;63667;49.046;8.468;2023-02-15T04:46:08;98.93;;;29.20;;
142;SDS011;63667;49.046;8.468;2023-02-15T04:48:36;71.83;;;24.90;;
142;SDS011;63667;49.046;8.468;2023-02-15T04:51:07;85.77;;;25.63;;
142;SDS011;63667;49.046;8.468;2023-02-15T04:53:35;82.17;;;27.90;;
142;SDS011;63667;49.046;8.468;2023-02-15T04:56:02;67.33;;;25.47;;
142;SDS011;63667;49.046;8.468;2023-02-15T04:58:30;77.10;;;24.67;;
142;SDS011;63667;49.046;8.468;2023-02-15T05:00:58;104.20;;;26.47;;
142;SDS011;63667;49.046;8.468;2023-02-15T05:03:25;73.23;;;25.80;;
142;SDS011;63667;49.046;8.468;2023-02-15T05:05:53;83.30;;;26.00;;
142;SDS011;63667;49.046;8.468;2023-02-15T05:08:20;78.40;;;27.30;;
142;SDS011;63667;49.046;8.468;2023-02-15T05:10:48;89.87;;;25.83;;
142;SDS011;63667;49.046;8.468;2023-02-15T05:13:15;90.47;;;27.10;;
142;SDS011;63667;49.046;8.468;2023-02-15T05:15:49;71.30;;;24.63;;
142;SDS011;63667;49.046;8.468;2023-02-15T05:18:17;85.70;;;26.77;;
142;SDS011;63667;49.046;8.468;2023-02-15T05:20:46;71.80;;;25.83;;
142;SDS011;63667;49.046;8.468;2023-02-15T05:23:13;77.80;;;25.07;;
142;SDS011;63667;49.046;8.468;2023-02-15T05:25:45;71.50;;;25.07;;
142;SDS011;63667;49.046;8.468;2023-02-15T05:28:33;64.17;;;23.50;;
142;SDS011;63667;49.046;8.468;2023-02-15T05:31:07;67.67;;;25.03;;
142;SDS011;63667;49.046;8.468;2023-02-15T05:33:42;64.50;;;23.90;;
142;SDS011;63667;49.046;8.468;2023-02-15T05:36:10;69.23;;;26.03;;
142;SDS011;63667;49.046;8.468;2023-02-15T05:38:37;85.20;;;25.90;;
142;SDS011;63667;49.046;8.468;2023-02-15T05:41:08;82.10;;;26.10;;
142;SDS011;63667;49.046;8.468;2023-02-15T05:43:36;68.60;;;25.27;;
142;SDS011;63667;49.046;8.468;2023-02-15T05:46:04;82.43;;;24.23;;
142;SDS011;63667;49.046;8.468;2023-02-15T05:48:32;67.87;;;24.63;;
142;SDS011;63667;49.046;8.468;2023-02-15T05:51:03;74.13;;;25.77;;
142;SDS011;63667;49.046;8.468;2023-02-15T05:53:35;69.50;;;24.57;;
142;SDS011;63667;49.046;8.468;2023-02-15T05:56:04;66.40;;;24.20;;
142;SDS011;63667;49.046;8.468;2023-02-15T05:58:37;64.80;;;24.20;;
142;SDS011;63667;49.046;8.468;2023-02-15T06:01:08;58.53;;;24.33;;
142;SDS011;63667;49.046;8.468;2023-02-15T06:03:45;73.60;;;24.60;;
142;SDS011;63667;49.046;8.468;2023-02-15T06:06:12;80.63;;;22.40;;
142;SDS011;63667;49.046;8.468;2023-02-15T06:08:40;66.63;;;24.90;;
142;SDS011;63667;49.046;8.468;2023-02-15T06:11:07;73.03;;;23.50;;
142;SDS011;63667;49.046;8.468;2023-02-15T06:13:34;136.70;;;29.87;;
142;SDS011;63667;49.046;8.468;2023-02-15T06:16:02;146.10;;;43.37;;
142;SDS011;63667;49.046;8.468;2023-02-15T06:18:30;81.67;;;23.30;;
142;SDS011;63667;49.046;8.468;2023-02-15T06:20:57;60.83;;;23.13;;
142;SDS011;63667;49.046;8.468;2023-02-15T06:23:25;63.87;;;23.87;;
142;SDS011;63667;49.046;8.468;2023-02-15T06:25:53;93.40;;;32.63;;
142;SDS011;63667;49.046;8.468;2023-02-15T06:28:22;91.20;;;25.83;;
142;SDS011;63667;49.046;8.468;2023-02-15T06:30:51;69.10;;;24.40;;
142;SDS011;63667;49.046;8.468;2023-02-15T06:33:19;56.00;;;22.93;;
142;SDS011;63667;49.046;8.468;2023-02-15T06:35:46;75.57;;;26.73;;
142;SDS011;63667;49.046;8.468;2023-02-15T06:38:14;103.20;;;28.20;;
142;SDS011;63667;49.046;8.468;2023-02-15T06:40:42;89.33;;;26.60;;
142;SDS011;63667;49.046;8.468;2023-02-15T06:43:10;78.00;;;25.37;;
142;SDS011;63667;49.046;8.468;2023-02-15T06:45:38;94.37;;;25.43;;
142;SDS011;63667;49.046;8.468;2023-02-15T06:48:07;97.10;;;26.53;;
142;SDS011;63667;49.046;8.468;2023-02-15T06:50:37;223.53;;;29.47;;
142;SDS011;63667;49.046;8.468;2023-02-15T06:53:04;189.10;;;30.57;;
142;SDS011;63667;49.046;8.468;2023-02-15T06:55:32;84.00;;;25.93;;
142;SDS011;63667;49.046;8.468;2023-02-15T06:57:59;141.30;;;26.53;;
142;SDS011;63667;49.046;8.468;2023-02-15T07:00:27;91.43;;;25.57;;
142;SDS011;63667;49.046;8.468;2023-02-15T07:02:55;93.57;;;26.57;;
142;SDS011;63667;49.046;8.468;2023-02-15T07:05:25;101.13;;;28.17;;
142;SDS011;63667;49.046;8.468;2023-02-15T07:07:59;118.40;;;28.43;;
142;SDS011;63667;49.046;8.468;2023-02-15T07:10:45;119.63;;;27.67;;
142;SDS011;63667;49.046;8.468;2023-02-15T07:13:15;94.87;;;26.60;;
142;SDS011;63667;49.046;8.468;2023-02-15T07:15:43;111.50;;;29.13;;
142;SDS011;63667;49.046;8.468;2023-02-15T07:18:10;167.43;;;29.00;;
142;SDS011;63667;49.046;8.468;2023-02-15T07:20:37;134.37;;;27.73;;
142;SDS011;63667;49.046;8.468;2023-02-15T07:23:07;236.20;;;32.07;;
142;SDS011;63667;49.046;8.468;2023-02-15T07:25:34;122.50;;;26.70;;
142;SDS011;63667;49.046;8.468;2023-02-15T07:28:02;103.17;;;27.07;;
142;SDS011;63667;49.046;8.468;2023-02-15T07:30:30;143.63;;;28.50;;
142;SDS011;63667;49.046;8.468;2023-02-15T07:32:59;113.60;;;24.50;;
142;SDS011;63667;49.046;8.468;2023-02-15T07:35:50;85.13;;;24.60;;
142;SDS011;63667;49.046;8.468;2023-02-15T07:38:24;115.67;;;26.23;;
142;SDS011;63667;49.046;8.468;2023-02-15T07:40:59;97.40;;;25.33;;
142;SDS011;63667;49.046;8.468;2023-02-15T07:43:27;112.67;;;25.17;;
142;SDS011;63667;49.046;8.468;2023-02-15T07:46:05;101.97;;;23.40;;
142;SDS011;63667;49.046;8.468;2023-02-15T07:48:35;69.67;;;21.57;;
142;SDS011;63667;49.046;8.468;2023-02-15T07:51:03;76.00;;;22.43;;
142;SDS011;63667;49.046;8.468;2023-02-15T07:53:34;66.43;;;22.00;;
142;SDS011;63667;49.046;8.468;2023-02-15T07:56:06;69.17;;;23.63;;
142;SDS011;63667;49.046;8.468;2023-02-15T07:58:37;91.87;;;23.00;;
142;SDS011;63667;49.046;8.468;2023-02-15T08:01:17;63.30;;;21.87;;
142;SDS011;63667;49.046;8.468;2023-02-15T08:03:53;66.47;;;22.13;;
142;SDS011;63667;49.046;8.468;2023-02-15T08:06:21;66.70;;;22.67;;
142;SDS011;63667;49.046;8.468;2023-02-15T08:08:51;75.87;;;22.97;;
142;SDS011;63667;49.046;8.468;2023-02-15T08:11:26;61.53;;;21.63;;
142;SDS011;63667;49.046;8.468;2023-02-15T08:19:05;57.60;;;20.87;;
142;SDS011;63667;49.046;8.468;2023-02-15T08:21:37;62.93;;;21.80;;
142;SDS011;63667;49.046;8.468;2023-02-15T08:24:07;70.93;;;20.30;;
142;SDS011;63667;49.046;8.468;2023-02-15T08:26:35;55.17;;;20.97;;
142;SDS011;63667;49.046;8.468;2023-02-15T08:29:04;60.03;;;23.00;;
142;SDS011;63667;49.046;8.468;2023-02-15T08:31:33;60.50;;;20.43;;
142;SDS011;63667;49.046;8.468;2023-02-15T08:34:01;56.93;;;21.83;;
142;SDS011;63667;49.046;8.468;2023-02-15T08:36:29;61.93;;;22.17;;
142;SDS011;63667;49.046;8.468;2023-02-15T08:38:57;69.33;;;21.73;;
142;SDS011;63667;49.046;8.468;2023-02-15T08:41:29;66.17;;;22.07;;
142;SDS011;63667;49.046;8.468;2023-02-15T08:43:59;80.63;;;21.63;;
142;SDS011;63667;49.046;8.468;2023-02-15T08:46:28;78.57;;;21.50;;
142;SDS011;63667;49.046;8.468;2023-02-15T08:48:55;79.50;;;21.87;;
142;SDS011;63667;49.046;8.468;2023-02-15T08:51:23;79.67;;;21.30;;
142;SDS011;63667;49.046;8.468;2023-02-15T08:53:52;92.97;;;21.43;;
142;SDS011;63667;49.046;8.468;2023-02-15T08:56:23;83.13;;;22.23;;
142;SDS011;63667;49.046;8.468;2023-02-15T08:58:54;64.10;;;22.23;;
142;SDS011;63667;49.046;8.468;2023-02-15T09:01:23;55.23;;;21.53;;
142;SDS011;63667;49.046;8.468;2023-02-15T09:03:54;59.80;;;21.63;;
142;SDS011;63667;49.046;8.468;2023-02-15T09:06:22;67.10;;;22.10;;
142;SDS011;63667;49.046;8.468;2023-02-15T09:08:50;64.17;;;21.40;;
142;SDS011;63667;49.046;8.468;2023-02-15T09:11:19;53.73;;;21.23;;
142;SDS011;63667;49.046;8.468;2023-02-15T09:13:57;69.60;;;21.03;;
142;SDS011;63667;49.046;8.468;2023-02-15T09:16:29;64.00;;;21.87;;
142;SDS011;63667;49.046;8.468;2023-02-15T09:18:58;63.13;;;21.37;;
142;SDS011;63667;49.046;8.468;2023-02-15T09:21:26;59.40;;;20.07;;
142;SDS011;63667;49.046;8.468;2023-02-15T09:23:58;62.63;;;21.47;;
142;SDS011;63667;49.046;8.468;2023-02-15T09:26:27;47.80;;;19.20;;
142;SDS011;63667;49.046;8.468;2023-02-15T09:28:57;53.40;;;20.50;;
142;SDS011;63667;49.046;8.468;2023-02-15T09:31:30;51.10;;;18.97;;
142;SDS011;63667;49.046;8.468;2023-02-15T09:34:00;53.90;;;20.27;;
142;SDS011;63667;49.046;8.468;2023-02-15T09:36:28;55.50;;;19.97;;
142;SDS011;63667;49.046;8.468;2023-02-15T09:39:07;53.70;;;20.43;;
142;SDS011;63667;49.046;8.468;2023-02-15T09:44:32;53.37;;;20.03;;
142;SDS011;63667;49.046;8.468;2023-02-15T09:47:09;48.50;;;18.70;;
142;SDS011;63667;49.046;8.468;2023-02-15T10:23:12;55.00;;;19.97;;
142;SDS011;63667;49.046;8.468;2023-02-15T10:29:36;49.37;;;19.03;;
142;SDS011;63667;49.046;8.468;2023-02-15T10:32:38;51.07;;;20.30;;
142;SDS011;63667;49.046;8.468;2023-02-15T10:38:33;56.90;;;21.03;;
142;SDS011;63667;49.046;8.468;2023-02-15T10:49:15;48.63;;;20.27;;
142;SDS011;63667;49.046;8.468;2023-02-15T11:00:46;67.80;;;23.00;;
142;SDS011;63667;49.046;8.468;2023-02-15T11:03:40;61.63;;;21.50;;
142;SDS011;63667;49.046;8.468;2023-02-15T11:06:16;65.60;;;23.07;;
142;SDS011;63667;49.046;8.468;2023-02-15T11:09:03;56.83;;;21.33;;
142;SDS011;63667;49.046;8.468;2023-02-15T11:11:39;56.13;;;23.40;;
142;SDS011;63667;49.046;8.468;2023-02-15T11:14:13;57.27;;;21.50;;
142;SDS011;63667;49.046;8.468;2023-02-15T11:16:42;60.70;;;21.70;;
142;SDS011;63667;49.046;8.468;2023-02-15T11:21:47;69.03;;;23.30;;
142;SDS011;63667;49.046;8.468;2023-02-15T11:24:19;65.63;;;23.13;;
142;SDS011;63667;49.046;8.468;2023-02-15T11:26:56;67.77;;;23.17;;
142;SDS011;63667;49.046;8.468;2023-02-15T11:29:34;69.67;;;25.00;;
142;SDS011;63667;49.046;8.468;2023-02-15T11:32:29;60.27;;;22.20;;
142;SDS011;63667;49.046;8.468;2023-02-15T11:35:11;66.57;;;22.87;;
142;SDS011;63667;49.046;8.468;2023-02-15T11:42:56;64.23;;;24.27;;
142;SDS011;63667;49.046;8.468;2023-02-15T11:45:31;60.63;;;22.97;;
142;SDS011;63667;49.046;8.468;2023-02-15T11:48:00;55.67;;;22.30;;
142;SDS011;63667;49.046;8.468;2023-02-15T11:50:39;72.93;;;24.37;;
142;SDS011;63667;49.046;8.468;2023-02-15T11:53:16;70.17;;;24.00;;
142;SDS011;63667;49.046;8.468;2023-02-15T11:56:02;62.17;;;24.17;;
142;SDS011;63667;49.046;8.468;2023-02-15T12:01:11;62.73;;;24.00;;
142;SDS011;63667;49.046;8.468;2023-02-15T12:06:16;64.57;;;24.10;;
142;SDS011;63667;49.046;8.468;2023-02-15T12:08:57;54.63;;;22.57;;
142;SDS011;63667;49.046;8.468;2023-02-15T12:11:50;64.77;;;24.63;;
142;SDS011;63667;49.046;8.468;2023-02-15T12:14:17;59.83;;;23.00;;
142;SDS011;63667;49.046;8.468;2023-02-15T12:16:53;58.70;;;23.17;;
142;SDS011;63667;49.046;8.468;2023-02-15T12:19:39;60.70;;;23.80;;
142;SDS011;63667;49.046;8.468;2023-02-15T12:22:27;57.60;;;23.33;;
142;SDS011;63667;49.046;8.468;2023-02-15T12:25:02;53.37;;;21.40;;
142;SDS011;63667;49.046;8.468;2023-02-15T12:27:48;52.77;;;22.20;;
142;SDS011;63667;49.046;8.468;2023-02-15T12:32:56;57.40;;;24.00;;
142;SDS011;63667;49.046;8.468;2023-02-15T12:35:47;60.93;;;23.97;;
142;SDS011;63667;49.046;8.468;2023-02-15T12:38:22;55.20;;;21.27;;
142;SDS011;63667;49.046;8.468;2023-02-15T12:40:58;57.63;;;23.90;;
142;SDS011;63667;49.046;8.468;2023-02-15T12:51:45;48.13;;;21.93;;
142;SDS011;63667;49.046;8.468;2023-02-15T12:59:51;52.00;;;23.30;;
142;SDS011;63667;49.046;8.468;2023-02-15T13:05:18;43.97;;;20.80;;
142;SDS011;63667;49.046;8.468;2023-02-15T13:08:00;43.93;;;21.00;;
142;SDS011;63667;49.046;8.468;2023-02-15T13:10:56;53.10;;;22.40;;
142;SDS011;63667;49.046;8.468;2023-02-15T13:13:28;43.87;;;21.47;;
142;SDS011;63667;49.046;8.468;2023-02-15T13:16:19;44.93;;;21.70;;
142;SDS011;63667;49.046;8.468;2023-02-15T13:18:50;46.13;;;21.30;;
142;SDS011;63667;49.046;8.468;2023-02-15T13:21:20;42.30;;;21.20;;
142;SDS011;63667;49.046;8.468;2023-02-15T13:23:51;41.63;;;21.13;;
142;SDS011;63667;49.046;8.468;2023-02-15T13:26:26;42.00;;;21.30;;
142;SDS011;63667;49.046;8.468;2023-02-15T13:28:58;42.33;;;21.40;;
142;SDS011;63667;49.046;8.468;2023-02-15T13:31:34;45.10;;;21.43;;
142;SDS011;63667;49.046;8.468;2023-02-15T13:34:03;43.83;;;20.90;;
142;SDS011;63667;49.046;8.468;2023-02-15T13:50:14;39.50;;;20.63;;
142;SDS011;63667;49.046;8.468;2023-02-15T13:58:10;48.13;;;21.90;;
142;SDS011;63667;49.046;8.468;2023-02-15T14:03:57;42.70;;;21.83;;
142;SDS011;63667;49.046;8.468;2023-02-15T14:31:33;40.60;;;21.40;;
142;SDS011;63667;49.046;8.468;2023-02-15T14:34:08;39.90;;;21.80;;
142;SDS011;63667;49.046;8.468;2023-02-15T14:36:48;34.27;;;20.83;;
142;SDS011;63667;49.046;8.468;2023-02-15T14:42:18;39.33;;;21.20;;
142;SDS011;63667;49.046;8.468;2023-02-15T14:45:33;40.83;;;21.57;;
142;SDS011;63667;49.046;8.468;2023-02-15T14:48:20;37.67;;;20.50;;
142;SDS011;63667;49.046;8.468;2023-02-15T14:50:49;41.43;;;21.43;;
142;SDS011;63667;49.046;8.468;2023-02-15T15:01:31;42.60;;;22.60;;
142;SDS011;63667;49.046;8.468;2023-02-15T15:04:04;45.50;;;22.90;;
142;SDS011;63667;49.046;8.468;2023-02-15T15:06:33;45.27;;;22.50;;
142;SDS011;63667;49.046;8.468;2023-02-15T15:09:19;44.27;;;20.70;;
142;SDS011;63667;49.046;8.468;2023-02-15T15:11:54;49.77;;;23.07;;
142;SDS011;63667;49.046;8.468;2023-02-15T15:14:41;45.27;;;21.80;;
142;SDS011;63667;49.046;8.468;2023-02-15T15:20:03;50.17;;;23.13;;
142;SDS011;63667;49.046;8.468;2023-02-15T15:22:35;44.97;;;22.20;;
142;SDS011;63667;49.046;8.468;2023-02-15T15:28:03;46.00;;;22.23;;
142;SDS011;63667;49.046;8.468;2023-02-15T15:33:04;49.00;;;23.40;;
142;SDS011;63667;49.046;8.468;2023-02-15T15:46:58;47.93;;;22.90;;
142;SDS011;63667;49.046;8.468;2023-02-15T15:49:48;51.30;;;23.67;;
142;SDS011;63667;49.046;8.468;2023-02-15T15:52:20;57.47;;;23.77;;
142;SDS011;63667;49.046;8.468;2023-02-15T15:54:48;53.47;;;23.20;;
142;SDS011;63667;49.046;8.468;2023-02-15T15:57:29;51.33;;;22.83;;
142;SDS011;63667;49.046;8.468;2023-02-15T16:03:26;49.40;;;23.90;;
142;SDS011;63667;49.046;8.468;2023-02-15T16:05:57;49.23;;;22.23;;
142;SDS011;63667;49.046;8.468;2023-02-15T16:08:27;47.00;;;22.07;;
142;SDS011;63667;49.046;8.468;2023-02-15T16:10:58;50.83;;;23.77;;
142;SDS011;63667;49.046;8.468;2023-02-15T16:13:34;53.93;;;24.30;;
142;SDS011;63667;49.046;8.468;2023-02-15T16:16:01;52.57;;;23.93;;
142;SDS011;63667;49.046;8.468;2023-02-15T16:18:30;56.87;;;24.90;;
142;SDS011;63667;49.046;8.468;2023-02-15T16:29:48;56.17;;;24.03;;
142;SDS011;63667;49.046;8.468;2023-02-15T16:32:17;52.23;;;23.33;;
142;SDS011;63667;49.046;8.468;2023-02-15T16:34:54;49.37;;;23.47;;
142;SDS011;63667;49.046;8.468;2023-02-15T16:37:24;52.80;;;24.40;;
142;SDS011;63667;49.046;8.468;2023-02-15T16:39:53;84.47;;;26.80;;
142;SDS011;63667;49.046;8.468;2023-02-15T16:42:21;55.23;;;25.33;;
142;SDS011;63667;49.046;8.468;2023-02-15T16:45:35;63.03;;;26.60;;
142;SDS011;63667;49.046;8.468;2023-02-15T16:47:46;55.10;;;23.57;;
142;SDS011;63667;49.046;8.468;2023-02-15T16:52:51;57.77;;;24.80;;
142;SDS011;63667;49.046;8.468;2023-02-15T16:55:20;60.60;;;25.33;;
142;SDS011;63667;49.046;8.468;2023-02-15T16:57:54;67.27;;;26.60;;
142;SDS011;63667;49.046;8.468;2023-02-15T17:00:38;54.20;;;24.27;;
142;SDS011;63667;49.046;8.468;2023-02-15T17:08:13;62.67;;;25.17;;
142;SDS011;63667;49.046;8.468;2023-02-15T17:10:42;61.53;;;27.70;;
142;SDS011;63667;49.046;8.468;2023-02-15T17:13:31;72.70;;;28.67;;
142;SDS011;63667;49.046;8.468;2023-02-15T17:18:44;81.93;;;30.80;;
142;SDS011;63667;49.046;8.468;2023-02-15T17:21:13;177.13;;;56.67;;
142;SDS011;63667;49.046;8.468;2023-02-15T17:23:45;134.00;;;43.43;;
142;SDS011;63667;49.046;8.468;2023-02-15T17:26:21;98.20;;;38.43;;
142;SDS011;63667;49.046;8.468;2023-02-15T17:29:00;93.77;;;35.07;;
142;SDS011;63667;49.046;8.468;2023-02-15T17:31:39;89.47;;;34.93;;
142;SDS011;63667;49.046;8.468;2023-02-15T17:34:09;92.67;;;34.83;;
142;SDS011;63667;49.046;8.468;2023-02-15T17:37:12;98.60;;;35.67;;
142;SDS011;63667;49.046;8.468;2023-02-15T17:39:59;104.23;;;37.03;;
142;SDS011;63667;49.046;8.468;2023-02-15T17:42:26;95.10;;;33.50;;
142;SDS011;63667;49.046;8.468;2023-02-15T17:44:54;93.27;;;33.60;;
142;SDS011;63667;49.046;8.468;2023-02-15T17:47:22;80.57;;;32.00;;
142;SDS011;63667;49.046;8.468;2023-02-15T17:49:52;75.47;;;30.40;;
142;SDS011;63667;49.046;8.468;2023-02-15T17:52:20;85.60;;;33.63;;
142;SDS011;63667;49.046;8.468;2023-02-15T17:54:49;83.70;;;32.57;;
142;SDS011;63667;49.046;8.468;2023-02-15T17:57:35;97.80;;;35.77;;
142;SDS011;63667;49.046;8.468;2023-02-15T18:00:04;110.93;;;39.90;;
142;SDS011;63667;49.046;8.468;2023-02-15T18:02:50;92.20;;;34.87;;
142;SDS011;63667;49.046;8.468;2023-02-15T18:05:37;87.50;;;34.77;;
142;SDS011;63667;49.046;8.468;2023-02-15T18:08:24;94.20;;;37.20;;
142;SDS011;63667;49.046;8.468;2023-02-15T18:11:12;108.33;;;38.73;;
142;SDS011;63667;49.046;8.468;2023-02-15T18:13:57;106.03;;;37.47;;
142;SDS011;63667;49.046;8.468;2023-02-15T18:16:27;97.37;;;36.70;;
142;SDS011;63667;49.046;8.468;2023-02-15T18:19:22;95.33;;;34.53;;
142;SDS011;63667;49.046;8.468;2023-02-15T18:21:52;73.73;;;31.90;;
142;SDS011;63667;49.046;8.468;2023-02-15T18:24:34;81.67;;;32.10;;
142;SDS011;63667;49.046;8.468;2023-02-15T18:27:07;73.07;;;30.80;;
142;SDS011;63667;49.046;8.468;2023-02-15T18:29:44;65.20;;;27.73;;
142;SDS011;63667;49.046;8.468;2023-02-15T18:32:16;71.37;;;27.17;;
142;SDS011;63667;49.046;8.468;2023-02-15T18:35:12;67.33;;;26.93;;
142;SDS011;63667;49.046;8.468;2023-02-15T18:37:42;61.83;;;25.17;;
142;SDS011;63667;49.046;8.468;2023-02-15T18:40:28;80.77;;;28.40;;
142;SDS011;63667;49.046;8.468;2023-02-15T18:42:58;63.73;;;25.93;;
142;SDS011;63667;49.046;8.468;2023-02-15T18:45:27;71.67;;;26.90;;
142;SDS011;63667;49.046;8.468;2023-02-15T18:48:01;65.97;;;26.40;;
142;SDS011;63667;49.046;8.468;2023-02-15T18:50:30;75.17;;;28.10;;
142;SDS011;63667;49.046;8.468;2023-02-15T18:53:00;68.77;;;26.60;;
142;SDS011;63667;49.046;8.468;2023-02-15T18:55:32;64.57;;;25.47;;
142;SDS011;63667;49.046;8.468;2023-02-15T18:58:00;63.87;;;25.90;;
142;SDS011;63667;49.046;8.468;2023-02-15T19:00:32;66.47;;;26.90;;
142;SDS011;63667;49.046;8.468;2023-02-15T19:03:17;71.17;;;27.53;;
142;SDS011;63667;49.046;8.468;2023-02-15T19:05:45;76.83;;;29.03;;
142;SDS011;63667;49.046;8.468;2023-02-15T19:08:19;67.10;;;25.87;;